createdAt,value
2023-05-23T00:03:56.662Z,24.40
2023-05-23T00:14:34.161Z,23.17
2023-05-23T00:25:11.912Z,23.35
2023-05-23T00:35:46.929Z,23.80
2023-05-23T00:46:21.967Z,24.80
2023-05-23T00:56:57.473Z,26.55
2023-05-23T01:07:32.999Z,30.23
2023-05-23T01:18:22.680Z,27.27
2023-05-23T01:29:10.695Z,27.13
2023-05-23T01:39:45.912Z,26.63
2023-05-23T01:50:20.852Z,27.70
2023-05-23T02:00:56.308Z,28.85
2023-05-23T02:11:31.052Z,28.10
2023-05-23T02:22:05.874Z,29.45
2023-05-23T02:32:41.374Z,28.80
2023-05-23T02:43:16.160Z,29.25
2023-05-23T02:53:51.418Z,30.02
2023-05-23T03:04:27.902Z,27.52
2023-05-23T03:15:02.770Z,27.38
2023-05-23T03:25:37.588Z,26.50
2023-05-23T03:36:13.153Z,22.85
2023-05-23T03:46:48.187Z,17.45
2023-05-23T03:57:24.730Z,16.40
2023-05-23T04:08:01.568Z,17.42
2023-05-23T04:18:39.482Z,15.85
2023-05-23T04:29:16.507Z,15.88
2023-05-23T04:39:52.442Z,15.55
2023-05-23T04:50:47.732Z,15.73
2023-05-23T05:01:25.997Z,17.17
2023-05-23T05:12:02.294Z,17.57
2023-05-23T05:22:41.194Z,18.98
2023-05-23T05:33:19.285Z,17.88
2023-05-23T05:43:54.981Z,17.75
2023-05-23T05:54:29.928Z,15.15
2023-05-23T06:05:06.761Z,13.45
2023-05-23T06:15:41.726Z,10.40
2023-05-23T06:26:16.540Z,11.57
2023-05-23T06:36:51.342Z,11.68
2023-05-23T06:47:28.715Z,11.20
2023-05-23T06:58:06.619Z,11.73
2023-05-23T07:08:43.896Z,8.98
2023-05-23T07:19:19.048Z,8.82
2023-05-23T07:29:57.848Z,7.17
2023-05-23T07:40:33.455Z,5.88
2023-05-23T07:51:08.531Z,6.45
2023-05-23T08:01:45.123Z,6.13
2023-05-23T08:12:25.618Z,6.18
2023-05-23T08:23:09.031Z,6.63
2023-05-23T08:33:45.014Z,6.22
2023-05-23T08:44:20.792Z,5.28
2023-05-23T08:55:02.671Z,4.85
2023-05-23T09:05:39.446Z,3.83
2023-05-23T09:16:20.563Z,4.00
2023-05-23T09:27:05.477Z,3.40
2023-05-23T09:37:46.270Z,3.42
2023-05-23T09:48:28.296Z,3.70
2023-05-23T09:59:04.088Z,2.80
2023-05-23T10:09:42.361Z,2.97
2023-05-23T10:20:18.086Z,2.55
2023-05-23T10:30:52.893Z,3.30
2023-05-23T10:41:47.754Z,2.35
2023-05-23T10:52:28.140Z,2.90
2023-05-23T11:03:09.327Z,2.90
2023-05-23T11:13:55.718Z,2.70
2023-05-23T11:24:53.754Z,3.03
2023-05-23T11:35:31.363Z,3.80
2023-05-23T11:46:10.606Z,4.63
2023-05-23T11:56:45.757Z,5.68
2023-05-23T12:07:21.631Z,4.75
2023-05-23T12:17:57.252Z,4.55
2023-05-23T12:28:39.773Z,3.97
2023-05-23T12:39:14.618Z,3.95
2023-05-23T12:49:50.138Z,3.85
2023-05-23T13:00:25.047Z,4.53
2023-05-23T13:11:00.088Z,4.10
2023-05-23T13:21:35.368Z,3.70
2023-05-23T13:32:10.207Z,2.85
2023-05-23T13:42:45.715Z,2.65
2023-05-23T13:53:21.854Z,2.20
2023-05-23T14:03:56.872Z,1.25
2023-05-23T14:14:32.053Z,1.88
2023-05-23T14:25:07.416Z,3.25
2023-05-23T14:35:43.528Z,3.58
2023-05-23T14:46:19.063Z,3.28
2023-05-23T14:56:54.266Z,3.53
2023-05-23T15:07:29.181Z,4.10
2023-05-23T15:18:07.191Z,4.82
2023-05-23T15:28:42.472Z,7.37
2023-05-23T15:39:18.388Z,6.05
2023-05-23T15:49:53.474Z,5.68
2023-05-23T16:00:28.761Z,5.88
2023-05-23T16:11:03.844Z,5.28
2023-05-23T16:21:38.624Z,5.32
2023-05-23T16:32:15.755Z,5.13
2023-05-23T16:42:50.926Z,4.65
2023-05-23T16:53:25.937Z,4.30
2023-05-23T17:04:01.224Z,4.28
2023-05-23T17:14:36.176Z,3.58
2023-05-23T17:25:11.122Z,3.85
2023-05-23T17:35:46.981Z,3.15
2023-05-23T17:46:22.007Z,2.65
2023-05-23T17:56:57.082Z,3.58
2023-05-23T18:07:32.511Z,3.50
2023-05-23T18:18:07.661Z,3.35
2023-05-23T18:28:43.054Z,2.58
2023-05-23T18:39:19.760Z,2.55
2023-05-23T18:49:55.060Z,2.72
2023-05-23T19:00:29.853Z,2.63
2023-05-23T19:11:06.106Z,2.65
2023-05-23T19:21:41.437Z,2.67
2023-05-23T19:32:16.827Z,2.60
2023-05-23T19:42:52.092Z,2.40
2023-05-23T19:53:27.014Z,2.22
2023-05-23T20:04:01.951Z,2.30
2023-05-23T20:14:36.770Z,2.28
2023-05-23T20:25:11.527Z,2.80
2023-05-23T20:35:48.648Z,2.60
2023-05-23T20:46:23.716Z,2.85
2023-05-23T20:56:59.161Z,2.90
2023-05-23T21:07:34.727Z,2.65
2023-05-23T21:18:09.693Z,2.60
2023-05-23T21:28:44.365Z,2.00
2023-05-23T21:39:20.836Z,2.55
2023-05-23T21:49:56.031Z,2.63
2023-05-23T22:00:31.342Z,2.67
2023-05-23T22:11:09.678Z,3.38
2023-05-23T22:21:44.496Z,3.15
2023-05-23T22:32:19.368Z,2.85
2023-05-23T22:42:54.434Z,3.22
2023-05-23T22:53:29.681Z,2.97
2023-05-23T23:04:04.608Z,3.25
2023-05-23T23:14:39.370Z,2.55
2023-05-23T23:25:14.433Z,3.03
2023-05-23T23:35:51.925Z,3.33
2023-05-23T23:46:27.532Z,3.22
2023-05-23T23:57:02.459Z,3.28
